Time;durP1;ratioP1;P1;durP2;ratioP2;P2;SDS_P1;SDS_P2;PMS_P1;PMS_P2;Temp;Humidity;BMP_temperature;BMP_pressure;BME280_temperature;BME280_humidity;BME280_pressure;Samples;Min_cycle;Max_cycle;Signal;HPM_P1;HPM_P2
2024/03/16 00:00:29;;;;;;;6.53;2.42;;;11.00;99.90;;;;;;4967989;28;20093;-80
2024/03/16 00:02:56;;;;;;;5.53;3.20;;;11.00;99.90;;;;;;4989518;28;20080;-80
2024/03/16 00:05:21;;;;;;;3.10;2.38;;;11.00;99.90;;;;;;4992037;28;20026;-80
2024/03/16 00:07:47;;;;;;;4.10;2.38;;;11.00;99.90;;;;;;5010071;28;20248;-80
2024/03/16 00:10:12;;;;;;;3.90;2.88;;;11.00;99.90;;;;;;5010886;28;20037;-80
2024/03/16 00:12:38;;;;;;;5.60;3.10;;;11.00;99.90;;;;;;5011139;28;20026;-80
2024/03/16 00:15:04;;;;;;;3.63;3.08;;;11.00;99.90;;;;;;5009599;28;20379;-81
2024/03/16 00:17:30;;;;;;;8.20;3.08;;;11.00;99.90;;;;;;5009858;28;20106;-80
2024/03/16 00:19:55;;;;;;;4.53;3.17;;;11.00;99.90;;;;;;5007923;28;20120;-81
2024/03/16 00:22:21;;;;;;;7.32;3.03;;;11.10;99.90;;;;;;5008080;28;20505;-81
2024/03/16 00:24:46;;;;;;;4.03;2.90;;;11.10;99.90;;;;;;4992020;28;20022;-80
2024/03/16 00:27:13;;;;;;;5.00;3.58;;;11.10;99.90;;;;;;5020049;28;20118;-80
2024/03/16 00:29:38;;;;;;;4.88;3.53;;;11.10;99.90;;;;;;5003631;28;20422;-81
2024/03/16 00:32:04;;;;;;;7.95;3.30;;;11.10;99.90;;;;;;5012611;28;20037;-81
2024/03/16 00:34:30;;;;;;;5.40;3.20;;;11.20;99.90;;;;;;5012858;28;20080;-81
2024/03/16 00:36:57;;;;;;;4.28;3.22;;;11.20;99.90;;;;;;5000228;28;20398;-81
2024/03/16 00:39:23;;;;;;;4.07;2.65;;;11.20;99.90;;;;;;5032500;28;20024;-81
2024/03/16 00:41:49;;;;;;;4.43;3.33;;;11.20;99.90;;;;;;5032181;28;20043;-81
2024/03/16 00:44:15;;;;;;;3.88;2.92;;;11.20;99.90;;;;;;5020422;28;20049;-81
2024/03/16 00:46:40;;;;;;;5.40;2.90;;;11.20;99.90;;;;;;4995241;28;20025;-81
2024/03/16 00:49:06;;;;;;;4.03;2.70;;;11.20;99.90;;;;;;5013560;28;20281;-81
2024/03/16 00:51:33;;;;;;;5.88;3.47;;;11.20;99.90;;;;;;5008127;28;20399;-81
2024/03/16 00:53:58;;;;;;;5.25;3.03;;;11.20;99.90;;;;;;5013016;28;20022;-81
2024/03/16 00:56:24;;;;;;;6.40;3.10;;;11.20;99.90;;;;;;5007880;28;20449;-81
2024/03/16 00:58:50;;;;;;;7.40;3.67;;;11.20;99.90;;;;;;5032113;28;20026;-80
2024/03/16 01:01:17;;;;;;;7.30;3.08;;;11.20;99.90;;;;;;5001824;28;20120;-81
2024/03/16 01:03:42;;;;;;;3.35;2.88;;;11.20;99.90;;;;;;4993151;28;20022;-81
2024/03/16 01:06:09;;;;;;;6.28;2.63;;;11.20;99.90;;;;;;4998652;28;20269;-81
2024/03/16 01:08:35;;;;;;;3.58;2.50;;;11.20;99.90;;;;;;4998516;28;20049;-81
2024/03/16 01:11:00;;;;;;;5.25;3.10;;;11.20;99.90;;;;;;5028019;28;20076;-81
2024/03/16 01:13:26;;;;;;;5.47;3.25;;;11.20;99.90;;;;;;5012909;28;20499;-81
2024/03/16 01:15:52;;;;;;;4.35;2.75;;;11.10;99.90;;;;;;5023410;28;20038;-81
2024/03/16 01:18:18;;;;;;;6.13;2.97;;;11.10;99.90;;;;;;5014842;28;20049;-81
2024/03/16 01:20:44;;;;;;;4.28;3.10;;;11.10;99.90;;;;;;5012017;28;20065;-81
2024/03/16 01:23:13;;;;;;;3.42;2.42;;;11.10;99.90;;;;;;4994720;28;20491;-80
2024/03/16 01:25:40;;;;;;;8.05;3.30;;;11.10;99.90;;;;;;5018573;28;20026;-81
2024/03/16 01:28:05;;;;;;;4.07;2.80;;;11.00;99.90;;;;;;5014850;28;20033;-81
2024/03/16 01:30:31;;;;;;;10.13;3.03;;;11.10;99.90;;;;;;5001603;28;20100;-81
2024/03/16 01:32:56;;;;;;;8.93;3.33;;;11.10;99.90;;;;;;5006883;28;20116;-81
2024/03/16 01:35:22;;;;;;;4.63;2.72;;;11.10;99.90;;;;;;5032078;28;20018;-81
2024/03/16 01:37:48;;;;;;;5.95;2.67;;;11.10;99.90;;;;;;4994623;28;20668;-81
2024/03/16 01:40:15;;;;;;;6.80;3.20;;;11.10;99.90;;;;;;4999685;28;20140;-81
2024/03/16 01:42:40;;;;;;;8.10;2.65;;;11.10;99.90;;;;;;4999284;28;20091;-81
2024/03/16 01:45:14;;;;;;;4.88;2.50;;;11.10;99.90;;;;;;5012134;28;20542;-81
2024/03/16 01:47:40;;;;;;;6.07;2.05;;;11.10;99.90;;;;;;5009246;28;20053;-80
2024/03/16 01:50:07;;;;;;;6.78;2.40;;;11.10;99.90;;;;;;5029320;28;20548;-81
2024/03/16 01:52:33;;;;;;;5.28;2.55;;;11.10;99.90;;;;;;5012187;28;20471;-81
2024/03/16 01:54:59;;;;;;;8.02;2.67;;;11.10;99.90;;;;;;5011742;28;20036;-81
2024/03/16 01:57:24;;;;;;;6.20;3.13;;;11.10;99.90;;;;;;5011917;28;20053;-80
2024/03/16 01:59:50;;;;;;;8.27;3.30;;;11.10;99.90;;;;;;4994323;28;20072;-81
2024/03/16 02:02:31;;;;;;;8.10;2.88;;;11.10;99.90;;;;;;5013377;28;20029;-80
2024/03/16 02:04:56;;;;;;;8.05;3.35;;;11.10;99.90;;;;;;5011764;28;20029;-81
2024/03/16 02:07:22;;;;;;;10.02;3.10;;;11.10;99.90;;;;;;5011463;28;20030;-81
2024/03/16 02:09:47;;;;;;;4.43;2.60;;;11.10;99.90;;;;;;4993859;28;20427;-81
2024/03/16 02:12:13;;;;;;;8.63;2.90;;;11.10;99.90;;;;;;5008557;28;20025;-81
2024/03/16 02:14:39;;;;;;;7.57;3.13;;;11.10;99.90;;;;;;5012300;28;20037;-81
2024/03/16 02:17:04;;;;;;;7.18;3.30;;;11.10;99.90;;;;;;4993981;28;20026;-81
2024/03/16 02:19:33;;;;;;;8.13;2.83;;;11.10;99.90;;;;;;5012467;28;20022;-81
2024/03/16 02:21:59;;;;;;;7.07;2.72;;;11.10;99.90;;;;;;5011357;28;20030;-80
2024/03/16 02:24:24;;;;;;;5.55;2.72;;;11.10;99.90;;;;;;5024607;28;20040;-80
2024/03/16 02:26:51;;;;;;;5.53;2.63;;;11.10;99.90;;;;;;5013334;28;20029;-80
2024/03/16 02:29:18;;;;;;;9.20;3.05;;;11.00;99.90;;;;;;5010447;28;20029;-80
2024/03/16 02:31:43;;;;;;;5.03;2.63;;;11.00;99.90;;;;;;5013540;28;20021;-80
2024/03/16 02:34:09;;;;;;;7.20;2.90;;;11.00;99.90;;;;;;5012580;28;20149;-80
2024/03/16 02:36:34;;;;;;;4.95;2.55;;;11.00;99.90;;;;;;5030283;28;20024;-81
2024/03/16 02:39:00;;;;;;;8.88;3.30;;;11.00;99.90;;;;;;5012866;28;20029;-80
2024/03/16 02:41:26;;;;;;;4.68;3.17;;;10.90;99.90;;;;;;5012140;28;20041;-80
2024/03/16 02:43:52;;;;;;;7.95;3.22;;;10.90;99.90;;;;;;4999918;28;20375;-81
2024/03/16 02:46:18;;;;;;;13.13;3.08;;;11.00;99.90;;;;;;4993367;28;20085;-81
2024/03/16 02:48:45;;;;;;;8.35;2.80;;;11.00;99.90;;;;;;5014275;28;20210;-80
2024/03/16 02:51:11;;;;;;;8.10;2.95;;;11.00;99.90;;;;;;5012063;28;20479;-80
2024/03/16 02:53:37;;;;;;;6.38;2.97;;;11.00;99.90;;;;;;5032010;28;20029;-80
2024/03/16 02:56:04;;;;;;;10.50;3.33;;;11.00;99.90;;;;;;5032336;28;20064;-81
2024/03/16 02:58:30;;;;;;;7.78;3.22;;;11.00;99.90;;;;;;5014097;28;20030;-81
2024/03/16 03:00:55;;;;;;;6.05;3.20;;;10.90;99.90;;;;;;4993674;28;20037;-81
2024/03/16 03:03:21;;;;;;;8.90;3.08;;;10.90;99.90;;;;;;5015373;28;20387;-81
2024/03/16 03:05:46;;;;;;;8.70;3.40;;;10.90;99.90;;;;;;5031129;28;20475;-81
2024/03/16 03:08:12;;;;;;;6.07;3.15;;;10.80;99.90;;;;;;5003154;28;20121;-81
2024/03/16 03:10:41;;;;;;;9.00;3.30;;;10.80;99.90;;;;;;4993529;28;20100;-80
2024/03/16 03:13:06;;;;;;;11.57;3.47;;;10.80;99.90;;;;;;5011046;28;20101;-81
2024/03/16 03:15:33;;;;;;;9.85;3.58;;;10.80;99.90;;;;;;4992762;28;20138;-81
2024/03/16 03:17:59;;;;;;;9.65;3.63;;;10.80;99.90;;;;;;5016161;28;20029;-81
2024/03/16 03:20:24;;;;;;;6.53;3.95;;;10.80;99.90;;;;;;5012372;28;20424;-81
2024/03/16 03:22:50;;;;;;;12.95;3.80;;;10.70;99.90;;;;;;5016834;28;20104;-80
2024/03/16 03:25:16;;;;;;;10.27;4.07;;;10.70;99.90;;;;;;5022881;28;20529;-81
2024/03/16 03:27:42;;;;;;;12.10;4.03;;;10.60;99.90;;;;;;5011990;28;20394;-81
2024/03/16 03:30:08;;;;;;;13.75;4.28;;;10.60;99.90;;;;;;5011844;28;20128;-80
2024/03/16 03:32:33;;;;;;;11.20;3.72;;;10.60;99.90;;;;;;5022550;28;20156;-81
2024/03/16 03:34:59;;;;;;;7.03;3.45;;;10.60;99.90;;;;;;4999238;28;20060;-81
2024/03/16 03:37:24;;;;;;;5.75;3.88;;;10.60;99.90;;;;;;5029843;28;20064;-81
2024/03/16 03:39:52;;;;;;;6.00;3.22;;;10.50;99.90;;;;;;4998221;28;20033;-81
2024/03/16 03:42:19;;;;;;;7.38;3.35;;;10.50;99.90;;;;;;5009743;28;20040;-81
2024/03/16 03:45:00;;;;;;;10.23;3.05;;;10.50;99.90;;;;;;5010274;28;20042;-81
2024/03/16 03:47:40;;;;;;;7.93;4.05;;;10.50;99.90;;;;;;4992435;28;20030;-81
2024/03/16 03:50:09;;;;;;;7.57;3.75;;;10.50;99.90;;;;;;4991449;28;20045;-80
2024/03/16 03:52:35;;;;;;;6.38;3.17;;;10.50;99.90;;;;;;4991868;28;20137;-81
2024/03/16 03:55:01;;;;;;;10.07;3.40;;;10.50;99.90;;;;;;4992593;28;20022;-81
2024/03/16 03:57:27;;;;;;;6.78;3.60;;;10.50;99.90;;;;;;5011721;28;20028;-81
2024/03/16 03:59:52;;;;;;;10.48;3.40;;;10.50;99.90;;;;;;5000076;28;20025;-81
2024/03/16 04:02:18;;;;;;;10.02;3.65;;;10.50;99.90;;;;;;5009868;28;20032;-81
2024/03/16 04:04:43;;;;;;;10.77;3.40;;;10.50;99.90;;;;;;5027295;28;20105;-81
2024/03/16 04:07:10;;;;;;;10.65;3.63;;;10.50;99.90;;;;;;5033487;28;20030;-81
2024/03/16 04:09:36;;;;;;;8.25;3.55;;;10.40;99.90;;;;;;5015661;28;20033;-81
2024/03/16 04:12:01;;;;;;;7.38;3.70;;;10.40;99.90;;;;;;5032976;28;20112;-81
2024/03/16 04:14:27;;;;;;;13.73;3.50;;;10.40;99.90;;;;;;5033469;28;20443;-82
2024/03/16 04:16:52;;;;;;;12.38;3.47;;;10.40;99.90;;;;;;5033232;28;20111;-81
2024/03/16 04:19:18;;;;;;;9.68;3.17;;;10.40;99.90;;;;;;5018936;28;20065;-81
2024/03/16 04:21:43;;;;;;;11.07;3.83;;;10.40;99.90;;;;;;4995822;28;20541;-81
2024/03/16 04:24:09;;;;;;;10.90;3.60;;;10.40;99.90;;;;;;5022132;28;20561;-81
2024/03/16 04:26:35;;;;;;;7.50;3.17;;;10.40;99.90;;;;;;5006136;28;20379;-81
2024/03/16 04:29:00;;;;;;;12.18;3.78;;;10.40;99.90;;;;;;5013424;28;20450;-81
2024/03/16 04:31:26;;;;;;;10.30;3.47;;;10.40;99.90;;;;;;4995149;28;20443;-80
2024/03/16 04:33:52;;;;;;;10.75;3.13;;;10.50;99.90;;;;;;4995891;28;20399;-81
2024/03/16 04:36:17;;;;;;;11.43;4.72;;;10.50;99.90;;;;;;5013118;28;20033;-81
2024/03/16 04:38:43;;;;;;;7.95;3.47;;;10.50;99.90;;;;;;5013159;28;20101;-81
2024/03/16 04:41:09;;;;;;;9.50;3.53;;;10.50;99.90;;;;;;4993332;28;20037;-81
2024/03/16 04:43:34;;;;;;;8.60;3.30;;;10.60;99.90;;;;;;4998807;28;20029;-81
2024/03/16 04:46:00;;;;;;;6.68;3.40;;;10.60;99.90;;;;;;4995656;28;20045;-81
2024/03/16 04:48:25;;;;;;;7.78;2.90;;;10.60;99.90;;;;;;5013348;28;20514;-81
2024/03/16 04:50:51;;;;;;;12.70;3.20;;;10.60;99.90;;;;;;5012176;28;20045;-81
2024/03/16 04:53:16;;;;;;;11.85;4.03;;;10.60;99.90;;;;;;5012829;28;20022;-81
2024/03/16 04:55:42;;;;;;;9.23;3.70;;;10.60;99.90;;;;;;5005881;28;20017;-81
2024/03/16 04:58:08;;;;;;;8.18;3.65;;;10.60;99.90;;;;;;5000046;28;20116;-81
2024/03/16 05:00:35;;;;;;;12.43;3.53;;;10.60;99.90;;;;;;5004416;28;20079;-81
2024/03/16 05:03:00;;;;;;;8.40;3.67;;;10.60;99.90;;;;;;5032203;28;20025;-80
2024/03/16 05:05:26;;;;;;;9.07;3.53;;;10.60;99.90;;;;;;5014764;28;20518;-80
2024/03/16 05:07:51;;;;;;;8.02;3.30;;;10.60;99.90;;;;;;5002554;28;20036;-81
2024/03/16 05:10:17;;;;;;;10.57;3.15;;;10.60;99.90;;;;;;5012201;28;20026;-81
2024/03/16 05:12:45;;;;;;;14.18;3.67;;;10.60;99.90;;;;;;5013562;28;20427;-81
2024/03/16 05:15:11;;;;;;;7.75;3.13;;;10.60;99.90;;;;;;4994796;28;20018;-81
2024/03/16 05:17:39;;;;;;;7.82;4.03;;;10.60;99.90;;;;;;5012550;28;20029;-81
2024/03/16 05:20:06;;;;;;;10.25;3.70;;;10.60;99.90;;;;;;4994429;28;20522;-81
2024/03/16 05:22:32;;;;;;;10.48;4.18;;;10.60;99.90;;;;;;4994220;28;20037;-81
2024/03/16 05:24:57;;;;;;;8.25;3.28;;;10.70;99.90;;;;;;5012560;28;20049;-81
2024/03/16 05:27:23;;;;;;;7.15;3.45;;;10.70;99.90;;;;;;5013388;28;20334;-81
2024/03/16 05:29:49;;;;;;;9.23;3.70;;;10.70;99.90;;;;;;4996212;28;20022;-81
2024/03/16 05:32:14;;;;;;;10.55;3.90;;;10.70;99.90;;;;;;5011367;28;20037;-81
2024/03/16 05:34:40;;;;;;;10.05;4.15;;;10.70;99.90;;;;;;5009917;28;20017;-81
2024/03/16 05:37:05;;;;;;;10.55;3.75;;;10.70;99.90;;;;;;5029964;28;20104;-81
2024/03/16 05:39:32;;;;;;;10.98;3.75;;;10.70;99.90;;;;;;5013699;28;20048;-81
2024/03/16 05:41:58;;;;;;;9.05;3.88;;;10.70;99.90;;;;;;5031308;28;20033;-81
2024/03/16 05:44:23;;;;;;;9.88;3.97;;;10.70;99.90;;;;;;5013956;28;20044;-81
2024/03/16 05:46:49;;;;;;;11.82;4.28;;;10.70;99.90;;;;;;5032188;28;20064;-81
2024/03/16 05:49:14;;;;;;;7.30;3.42;;;10.60;99.90;;;;;;5000437;28;20030;-81
2024/03/16 05:51:40;;;;;;;8.98;3.83;;;10.70;99.90;;;;;;5011584;28;20037;-80
2024/03/16 05:54:06;;;;;;;9.13;3.50;;;10.70;99.90;;;;;;5011474;28;20088;-81
2024/03/16 05:56:32;;;;;;;7.35;3.55;;;10.70;99.90;;;;;;4994011;28;20054;-81
2024/03/16 05:58:58;;;;;;;7.90;3.47;;;10.70;99.90;;;;;;5011878;28;20451;-79
2024/03/16 06:01:24;;;;;;;6.78;3.83;;;10.60;99.90;;;;;;5011078;28;20030;-79
2024/03/16 06:03:50;;;;;;;7.90;3.92;;;10.70;99.90;;;;;;5006459;28;20075;-80
2024/03/16 06:06:15;;;;;;;7.57;3.78;;;10.70;99.90;;;;;;5031082;28;20033;-80
2024/03/16 06:08:41;;;;;;;8.27;4.22;;;10.70;99.90;;;;;;5029847;28;20084;-80
2024/03/16 06:11:08;;;;;;;8.32;3.83;;;10.70;99.90;;;;;;5012647;28;20125;-80
2024/03/16 06:13:33;;;;;;;9.00;3.90;;;10.70;99.90;;;;;;5030794;28;20092;-80
2024/03/16 06:15:59;;;;;;;7.25;3.42;;;10.80;99.90;;;;;;5031297;28;20044;-80
2024/03/16 06:18:24;;;;;;;7.05;3.63;;;10.80;99.90;;;;;;5012853;28;20132;-79
2024/03/16 06:20:50;;;;;;;5.22;3.22;;;10.80;99.90;;;;;;4993855;28;20061;-80
2024/03/16 06:23:15;;;;;;;9.15;3.97;;;10.80;99.90;;;;;;4995723;28;20444;-80
2024/03/16 06:25:48;;;;;;;6.95;3.33;;;10.80;99.90;;;;;;5012266;28;20041;-82
2024/03/16 06:28:19;;;;;;;10.00;3.45;;;10.90;99.90;;;;;;5021128;28;20029;-81
2024/03/16 06:30:55;;;;;;;;;;;10.90;99.90;;;;;;5021764;28;20026;-81
2024/03/16 06:33:27;;;;;;;5.70;3.50;;;10.90;99.90;;;;;;5012085;28;20172;-82
2024/03/16 06:35:53;;;;;;;6.40;3.40;;;11.00;99.90;;;;;;5012535;28;20108;-81
2024/03/16 06:38:19;;;;;;;8.70;3.35;;;11.00;99.90;;;;;;5013060;28;20100;-81
2024/03/16 06:40:45;;;;;;;9.13;3.13;;;11.00;99.90;;;;;;4998260;28;20121;-81
2024/03/16 06:43:11;;;;;;;10.73;3.70;;;11.00;99.90;;;;;;4974628;28;20484;-83
2024/03/16 06:45:36;;;;;;;7.75;3.58;;;11.10;99.90;;;;;;5005413;28;20082;-87
2024/03/16 06:48:02;;;;;;;5.03;3.08;;;11.10;99.90;;;;;;5013804;28;20156;-84
2024/03/16 06:50:28;;;;;;;6.97;3.10;;;11.10;99.90;;;;;;5014060;28;20030;-85
2024/03/16 06:52:53;;;;;;;4.88;3.00;;;11.10;99.90;;;;;;5014109;28;20035;-85
2024/03/16 06:55:19;;;;;;;10.13;3.92;;;11.10;99.90;;;;;;5018961;28;20092;-85
2024/03/16 06:57:45;;;;;;;8.23;3.33;;;11.10;99.90;;;;;;4997090;28;20374;-85
2024/03/16 07:00:11;;;;;;;10.85;3.95;;;11.10;99.90;;;;;;5008181;28;20022;-86
2024/03/16 07:02:37;;;;;;;9.75;4.00;;;11.10;99.90;;;;;;4994422;28;20422;-85
2024/03/16 07:05:03;;;;;;;8.07;3.97;;;11.10;99.90;;;;;;5006145;28;20025;-85
2024/03/16 07:07:30;;;;;;;7.20;3.72;;;11.10;99.90;;;;;;4997404;28;20030;-85
2024/03/16 07:09:55;;;;;;;9.77;4.10;;;11.10;99.90;;;;;;4997185;28;20048;-86
2024/03/16 07:12:21;;;;;;;7.22;3.97;;;11.10;99.90;;;;;;4993966;28;20455;-86
2024/03/16 07:14:47;;;;;;;11.63;4.10;;;11.10;99.90;;;;;;5012336;28;20102;-85
2024/03/16 07:17:12;;;;;;;11.68;5.20;;;11.10;99.90;;;;;;4994815;28;20022;-85
2024/03/16 07:19:38;;;;;;;10.77;3.70;;;11.10;99.90;;;;;;5013965;28;20014;-85
2024/03/16 07:22:07;;;;;;;9.68;4.60;;;11.10;99.90;;;;;;5012536;28;20025;-85
2024/03/16 07:24:34;;;;;;;8.07;3.40;;;11.10;99.90;;;;;;5014754;28;20032;-86
2024/03/16 07:27:00;;;;;;;10.13;4.45;;;11.10;99.90;;;;;;5013526;28;20025;-88
2024/03/16 07:29:25;;;;;;;13.10;4.80;;;11.10;99.90;;;;;;5018907;28;20029;-88
2024/03/16 07:31:51;;;;;;;9.48;4.45;;;11.10;99.90;;;;;;5016305;28;20606;-90
2024/03/16 07:34:16;;;;;;;10.77;4.70;;;11.10;99.90;;;;;;5016632;28;20026;-88
2024/03/16 07:36:42;;;;;;;14.15;5.63;;;11.10;99.90;;;;;;5018102;28;20498;-89
2024/03/16 07:39:08;;;;;;;9.68;4.70;;;11.10;99.90;;;;;;5003045;28;20028;-83
2024/03/16 07:41:34;;;;;;;13.25;5.22;;;11.00;99.90;;;;;;5014561;28;20061;-83
2024/03/16 07:44:00;;;;;;;11.73;5.28;;;11.10;99.90;;;;;;5018317;28;20048;-84
2024/03/16 07:46:26;;;;;;;12.15;5.78;;;11.20;99.90;;;;;;5014353;28;20080;-83
2024/03/16 07:48:51;;;;;;;11.20;5.30;;;11.20;99.90;;;;;;5015176;28;20061;-83
2024/03/16 07:51:17;;;;;;;13.73;6.00;;;11.20;99.90;;;;;;5010564;28;20021;-83
2024/03/16 07:53:43;;;;;;;13.77;6.57;;;11.40;99.90;;;;;;4998463;28;20057;-82
2024/03/16 07:56:11;;;;;;;13.25;7.40;;;11.60;99.90;;;;;;4999017;28;20060;-82
2024/03/16 07:58:39;;;;;;;13.52;6.20;;;11.70;99.90;;;;;;5014888;28;20037;-84
2024/03/16 08:01:05;;;;;;;14.50;6.90;;;11.90;99.90;;;;;;5035969;28;20025;-81
2024/03/16 08:03:31;;;;;;;13.52;6.80;;;11.90;99.90;;;;;;5035944;28;20021;-82
2024/03/16 08:06:01;;;;;;;10.63;6.30;;;12.00;99.90;;;;;;5036255;28;20017;-84
2024/03/16 08:08:27;;;;;;;11.50;7.50;;;12.00;99.90;;;;;;5036448;28;20383;-82
2024/03/16 08:10:54;;;;;;;11.07;7.22;;;11.90;99.90;;;;;;4997536;28;20039;-86
2024/03/16 08:13:20;;;;;;;10.75;6.93;;;11.90;99.90;;;;;;5004630;28;20413;-81
2024/03/16 08:15:46;;;;;;;16.00;8.27;;;11.80;99.90;;;;;;5036569;28;20091;-85
2024/03/16 08:18:12;;;;;;;13.13;7.93;;;11.60;99.90;;;;;;5017224;28;20032;-84
2024/03/16 08:20:37;;;;;;;13.88;8.75;;;11.60;99.90;;;;;;5015617;28;20022;-86
2024/03/16 08:23:03;;;;;;;15.60;8.88;;;11.40;99.90;;;;;;5034714;28;20034;-82
2024/03/16 08:25:31;;;;;;;15.43;9.27;;;11.40;99.90;;;;;;5034752;28;20573;-80
2024/03/16 08:27:57;;;;;;;15.73;9.25;;;11.30;99.90;;;;;;5031016;28;20027;-84
2024/03/16 08:30:22;;;;;;;19.45;9.55;;;11.30;99.90;;;;;;5008796;28;20085;-84
2024/03/16 08:32:48;;;;;;;16.52;9.68;;;11.20;99.90;;;;;;5018307;28;20025;-85
2024/03/16 08:35:14;;;;;;;20.80;9.57;;;11.20;99.90;;;;;;4996958;28;20480;-87
2024/03/16 08:37:39;;;;;;;14.25;9.38;;;11.20;99.90;;;;;;4977811;28;20514;-82
2024/03/16 08:40:11;;;;;;;17.67;10.75;;;11.10;99.90;;;;;;4994565;28;20092;-80
2024/03/16 08:42:43;;;;;;;19.30;10.88;;;11.10;99.90;;;;;;4978105;28;20034;-81
2024/03/16 08:45:09;;;;;;;15.93;9.45;;;11.00;99.90;;;;;;4978123;28;20031;-80
2024/03/16 08:47:35;;;;;;;16.17;9.80;;;11.00;99.90;;;;;;5015886;28;20037;-80
2024/03/16 08:50:01;;;;;;;14.68;8.70;;;10.90;99.90;;;;;;5034898;28;20039;-81
2024/03/16 08:52:27;;;;;;;11.55;6.55;;;11.00;99.90;;;;;;5004582;28;20590;-80
2024/03/16 08:54:56;;;;;;;7.85;5.93;;;10.90;99.90;;;;;;5015156;28;20037;-80
2024/03/16 08:57:25;;;;;;;5.53;4.20;;;10.90;99.90;;;;;;4997554;28;20030;-80
2024/03/16 08:59:51;;;;;;;6.38;4.50;;;10.90;99.90;;;;;;4997347;28;20022;-80
2024/03/16 09:02:19;;;;;;;7.45;4.32;;;11.00;99.90;;;;;;5000886;28;20797;-79
2024/03/16 09:04:48;;;;;;;6.75;4.25;;;10.90;99.90;;;;;;5032941;28;20057;-80
2024/03/16 09:07:14;;;;;;;7.38;3.70;;;10.80;99.90;;;;;;5035491;28;20029;-79
2024/03/16 09:09:40;;;;;;;6.32;4.93;;;10.70;99.90;;;;;;5032660;28;20029;-80
2024/03/16 09:12:06;;;;;;;7.68;5.00;;;10.70;99.90;;;;;;5023199;28;20498;-79
2024/03/16 09:14:32;;;;;;;8.90;4.78;;;10.70;99.90;;;;;;4995664;28;20064;-81
2024/03/16 09:16:58;;;;;;;6.35;4.65;;;10.60;99.90;;;;;;5012314;28;20465;-81
2024/03/16 09:19:24;;;;;;;5.43;3.83;;;10.60;99.90;;;;;;5031453;28;20100;-81
2024/03/16 09:21:50;;;;;;;6.72;4.03;;;10.70;99.90;;;;;;5030518;28;20120;-81
2024/03/16 09:24:16;;;;;;;7.28;4.10;;;10.70;99.90;;;;;;5022281;28;20028;-79
2024/03/16 09:26:42;;;;;;;7.28;4.80;;;10.70;99.90;;;;;;5033816;28;20052;-87
2024/03/16 09:29:09;;;;;;;7.82;5.28;;;10.60;99.90;;;;;;5003722;28;20491;-88
2024/03/16 09:31:35;;;;;;;9.50;4.65;;;10.50;99.90;;;;;;4999405;28;20396;-87
2024/03/16 09:34:01;;;;;;;7.15;5.22;;;10.50;99.90;;;;;;5006965;28;20025;-87
2024/03/16 09:36:28;;;;;;;6.03;4.45;;;10.40;99.90;;;;;;5017119;28;20075;-89
2024/03/16 09:38:53;;;;;;;5.88;4.72;;;10.40;99.90;;;;;;5000739;28;20053;-82
2024/03/16 09:41:20;;;;;;;9.70;4.95;;;10.20;99.90;;;;;;5013104;28;20178;-89
2024/03/16 09:43:46;;;;;;;4.22;3.20;;;10.10;99.90;;;;;;5017125;28;20031;-88
2024/03/16 09:46:12;;;;;;;3.80;2.55;;;10.00;99.90;;;;;;5006812;28;20465;-89
2024/03/16 09:48:38;;;;;;;2.88;2.17;;;9.90;99.90;;;;;;5016015;28;20030;-87
2024/03/16 09:51:04;;;;;;;4.85;1.90;;;9.90;99.90;;;;;;4996824;28;20080;-88
2024/03/16 09:53:34;;;;;;;3.05;1.70;;;9.90;99.90;;;;;;4998472;28;20026;-86
2024/03/16 09:56:04;;;;;;;1.95;1.20;;;10.00;99.90;;;;;;4998990;28;20091;-91
2024/03/16 09:58:34;;;;;;;8.18;1.75;;;10.10;99.90;;;;;;5011244;28;20140;-93
2024/03/16 10:01:01;;;;;;;2.70;0.88;;;10.30;99.90;;;;;;5017045;28;20102;-87
2024/03/16 10:03:40;;;;;;;3.05;0.70;;;10.30;99.90;;;;;;5018486;28;20022;-90
2024/03/16 10:06:11;;;;;;;1.27;0.70;;;10.30;99.90;;;;;;5019246;28;20029;-89
2024/03/16 10:08:36;;;;;;;;;;;10.50;99.90;;;;;;5018424;28;20612;-94
2024/03/16 10:11:15;;;;;;;3.58;1.13;;;10.60;99.90;;;;;;5018034;28;19948;-91
2024/03/16 10:13:57;;;;;;;6.00;0.95;;;10.80;99.90;;;;;;4982528;28;20022;-89
2024/03/16 10:16:24;;;;;;;3.25;1.05;;;11.40;99.90;;;;;;4998537;28;20050;-92
2024/03/16 10:18:52;;;;;;;3.20;0.88;;;11.60;99.90;;;;;;5016191;28;20025;-89
2024/03/16 10:21:19;;;;;;;1.75;1.00;;;11.70;99.90;;;;;;5015253;28;20119;-90
2024/03/16 10:23:45;;;;;;;3.10;0.90;;;11.80;99.90;;;;;;4998001;28;20476;-88
2024/03/16 10:26:15;;;;;;;3.05;0.90;;;11.90;99.90;;;;;;4997781;28;20125;-89
2024/03/16 10:28:44;;;;;;;2.75;0.93;;;11.80;99.90;;;;;;4998561;28;20026;-90
2024/03/16 10:31:10;;;;;;;2.72;1.10;;;11.90;99.90;;;;;;4997393;28;20033;-91
2024/03/16 10:33:36;;;;;;;4.30;1.08;;;11.90;99.90;;;;;;4997038;28;20476;-88
2024/03/16 10:36:03;;;;;;;3.17;1.27;;;11.60;99.90;;;;;;5022111;28;20037;-87
2024/03/16 10:38:30;;;;;;;2.80;1.15;;;11.40;99.90;;;;;;4994117;28;20220;-87
2024/03/16 10:41:04;;;;;;;2.75;1.17;;;11.20;99.90;;;;;;5014577;28;20026;-89
2024/03/16 10:43:32;;;;;;;2.47;1.05;;;11.00;99.90;;;;;;4996259;28;20030;-89
2024/03/16 10:46:09;;;;;;;4.03;0.80;;;10.90;99.90;;;;;;4995377;28;20030;-87
2024/03/16 10:48:43;;;;;;;5.55;1.13;;;10.90;99.90;;;;;;4995634;28;20510;-88
2024/03/16 10:51:19;;;;;;;5.72;1.10;;;11.00;99.90;;;;;;4995091;28;20053;-88
2024/03/16 10:53:48;;;;;;;3.03;1.05;;;11.60;99.90;;;;;;4994288;28;20393;-82
2024/03/16 10:56:15;;;;;;;3.72;1.08;;;12.50;99.90;;;;;;4992634;28;20026;-83
2024/03/16 10:58:52;;;;;;;3.63;1.20;;;12.60;99.90;;;;;;4991692;28;20033;-82
2024/03/16 11:01:41;;;;;;;3.78;1.48;;;12.40;99.90;;;;;;4992279;28;20022;-82
2024/03/16 11:04:11;;;;;;;5.22;1.50;;;12.00;99.90;;;;;;4985239;28;20116;-90
2024/03/16 11:06:41;;;;;;;3.53;1.77;;;11.80;99.90;;;;;;4996847;28;20030;-90
2024/03/16 11:09:32;;;;;;;6.70;1.98;;;11.70;99.90;;;;;;4997104;28;20391;-90
2024/03/16 11:12:31;;;;;;;8.45;2.35;;;11.50;99.90;;;;;;5000500;28;20029;-88
2024/03/16 11:18:19;;;;;;;8.55;2.85;;;10.90;99.90;;;;;;5014360;28;20131;-88
2024/03/16 11:20:55;;;;;;;8.02;2.40;;;10.50;99.90;;;;;;4996676;28;20026;-88
2024/03/16 11:23:25;;;;;;;6.72;1.90;;;10.20;99.90;;;;;;4998879;28;20480;-87
2024/03/16 11:25:51;;;;;;;8.73;2.33;;;10.10;99.90;;;;;;4997982;28;20036;-86
2024/03/16 11:28:21;;;;;;;14.90;2.95;;;10.00;99.90;;;;;;4996408;28;20025;-86
2024/03/16 11:30:47;;;;;;;9.77;2.42;;;10.00;99.90;;;;;;4996950;28;20030;-88
2024/03/16 11:33:19;;;;;;;10.60;2.25;;;9.90;99.90;;;;;;4996885;28;20022;-87
2024/03/16 11:35:45;;;;;;;12.10;2.25;;;10.00;99.90;;;;;;4997241;28;20022;-89
2024/03/16 11:38:21;;;;;;;8.80;2.17;;;10.00;99.90;;;;;;4997843;28;20094;-90
2024/03/16 11:40:48;;;;;;;6.95;1.83;;;9.90;99.90;;;;;;4997416;28;20037;-89
2024/03/16 11:43:16;;;;;;;7.47;2.03;;;9.90;99.90;;;;;;4996864;28;20053;-86
2024/03/16 11:45:46;;;;;;;10.90;1.98;;;9.90;99.90;;;;;;4996925;28;20034;-87
2024/03/16 11:48:16;;;;;;;7.70;1.63;;;9.80;99.90;;;;;;4997761;28;20022;-90
2024/03/16 11:50:43;;;;;;;6.03;1.73;;;9.80;99.90;;;;;;4997611;28;20057;-88
2024/03/16 11:53:12;;;;;;;10.10;2.22;;;9.80;99.90;;;;;;4997405;28;20033;-88
2024/03/16 11:55:38;;;;;;;18.67;2.47;;;9.80;99.90;;;;;;4998194;28;20022;-87
2024/03/16 11:58:04;;;;;;;8.38;1.90;;;9.80;99.90;;;;;;4996386;28;20022;-85
2024/03/16 12:00:30;;;;;;;6.53;1.70;;;9.90;99.90;;;;;;4996064;28;20084;-84
2024/03/16 12:02:59;;;;;;;8.13;2.13;;;10.00;99.90;;;;;;4995171;28;20033;-84
2024/03/16 12:05:26;;;;;;;8.70;1.85;;;10.00;99.90;;;;;;4995497;28;20036;-82
2024/03/16 13:27:21;;;;;;;9.65;3.30;;;10.50;99.90;;;;;;5103006;27;20498;-84
2024/03/16 13:29:48;;;;;;;10.32;3.28;;;10.20;99.90;;;;;;5082998;28;20036;-84
2024/03/16 13:32:14;;;;;;;10.70;2.20;;;10.30;99.90;;;;;;5088870;28;20143;-84
2024/03/16 13:34:40;;;;;;;8.70;2.67;;;10.30;99.90;;;;;;5070845;28;272181;-85
2024/03/16 13:37:06;;;;;;;7.07;2.63;;;10.40;99.90;;;;;;5045036;28;20037;-85
2024/03/16 13:39:32;;;;;;;8.80;2.08;;;10.60;99.90;;;;;;5049333;28;20368;-85
2024/03/16 13:41:58;;;;;;;6.60;1.80;;;10.70;99.90;;;;;;5042405;28;20026;-85
2024/03/16 13:44:23;;;;;;;5.25;2.28;;;10.90;99.90;;;;;;5029225;28;20056;-85
2024/03/16 13:46:51;;;;;;;7.20;2.15;;;11.00;99.90;;;;;;5029005;28;20026;-85
2024/03/16 13:49:17;;;;;;;5.57;1.60;;;11.10;99.90;;;;;;5041895;28;20024;-84
2024/03/16 13:51:43;;;;;;;5.25;1.75;;;11.00;99.90;;;;;;5038705;28;20089;-85
2024/03/16 13:54:08;;;;;;;3.88;1.58;;;10.90;99.90;;;;;;5043892;28;20056;-85
2024/03/16 13:56:34;;;;;;;7.03;1.90;;;10.90;99.90;;;;;;5046572;28;20029;-86
2024/03/16 13:58:59;;;;;;;3.22;1.55;;;10.80;99.90;;;;;;5050041;28;20045;-85
2024/03/16 14:01:32;;;;;;;9.05;1.63;;;10.70;99.90;;;;;;5028795;28;20392;-86
2024/03/16 14:04:02;;;;;;;5.75;2.20;;;10.60;99.90;;;;;;5023320;28;20118;-84
2024/03/16 14:06:28;;;;;;;6.50;1.60;;;10.60;99.90;;;;;;5027205;28;20500;-85